createdAt,value
2018-06-21T00:01:36.504Z,10.70
2018-06-21T00:04:04.547Z,11.33
2018-06-21T00:06:32.545Z,11.00
2018-06-21T00:09:00.568Z,12.27
2018-06-21T00:11:28.585Z,10.80
2018-06-21T00:13:56.620Z,10.30
2018-06-21T00:16:24.694Z,11.67
2018-06-21T00:18:52.697Z,12.00
2018-06-21T00:21:20.689Z,12.20
2018-06-21T00:23:48.676Z,12.20
2018-06-21T00:26:16.657Z,11.93
2018-06-21T00:28:44.721Z,12.17
2018-06-21T00:31:12.742Z,12.20
2018-06-21T00:33:40.834Z,13.33
2018-06-21T00:36:08.863Z,13.30
2018-06-21T00:38:36.853Z,11.60
2018-06-21T00:41:04.868Z,12.50
2018-06-21T00:43:32.908Z,13.00
2018-06-21T00:46:01.733Z,14.70
2018-06-21T00:48:29.733Z,13.67
2018-06-21T00:50:57.769Z,13.13
2018-06-21T00:53:25.809Z,12.33
2018-06-21T00:56:05.293Z,13.33
2018-06-21T00:58:33.296Z,14.30
2018-06-21T01:01:01.304Z,14.47
2018-06-21T01:03:29.301Z,13.80
2018-06-21T01:05:57.325Z,14.80
2018-06-21T01:08:25.338Z,13.80
2018-06-21T01:10:53.356Z,14.27
2018-06-21T01:13:21.368Z,23.20
2018-06-21T01:15:49.384Z,22.97
2018-06-21T01:18:17.889Z,22.70
2018-06-21T01:20:45.881Z,21.53
2018-06-21T01:23:13.890Z,18.77
2018-06-21T01:25:42.017Z,18.30
2018-06-21T01:28:10.014Z,15.43
2018-06-21T01:30:38.022Z,14.67
2018-06-21T01:33:06.050Z,14.37
2018-06-21T01:35:34.090Z,12.60
2018-06-21T01:38:02.084Z,14.37
2018-06-21T01:40:30.089Z,13.40
2018-06-21T01:42:58.116Z,13.57
2018-06-21T01:45:26.225Z,14.13
2018-06-21T01:47:54.231Z,13.40
2018-06-21T01:50:22.247Z,14.90
2018-06-21T01:52:50.276Z,13.63
2018-06-21T01:55:18.308Z,15.20
2018-06-21T01:57:46.304Z,14.40
2018-06-21T02:00:14.341Z,14.87
2018-06-21T02:02:42.908Z,14.20
2018-06-21T02:05:10.969Z,14.03
2018-06-21T02:07:39.183Z,16.10
2018-06-21T02:10:07.444Z,15.60
2018-06-21T02:12:35.486Z,15.67
2018-06-21T02:15:03.502Z,15.70
2018-06-21T02:17:31.531Z,15.80
2018-06-21T02:19:59.572Z,15.60
2018-06-21T02:22:27.580Z,16.10
2018-06-21T02:24:55.638Z,15.63
2018-06-21T02:27:23.633Z,15.20
2018-06-21T02:29:51.613Z,16.50
2018-06-21T02:32:19.667Z,16.32
2018-06-21T02:34:47.808Z,17.20
2018-06-21T02:37:15.869Z,16.37
2018-06-21T02:39:43.849Z,18.33
2018-06-21T02:42:11.856Z,17.70
2018-06-21T02:44:40.005Z,16.37
2018-06-21T02:47:08.029Z,18.27
2018-06-21T02:49:36.044Z,18.00
2018-06-21T02:52:05.012Z,17.90
2018-06-21T02:54:33.122Z,17.20
2018-06-21T02:57:01.122Z,18.43
2018-06-21T02:59:29.141Z,16.97
2018-06-21T03:01:57.148Z,20.50
2018-06-21T03:04:25.140Z,18.10
2018-06-21T03:06:53.133Z,18.70
2018-06-21T03:09:21.150Z,17.87
2018-06-21T03:11:49.145Z,18.97
2018-06-21T03:14:17.168Z,18.77
2018-06-21T03:16:45.202Z,19.47
2018-06-21T03:19:13.209Z,18.87
2018-06-21T03:21:41.216Z,19.20
2018-06-21T03:24:10.250Z,18.47
2018-06-21T03:26:38.240Z,17.97
2018-06-21T03:29:06.233Z,18.97
2018-06-21T03:31:34.247Z,19.80
2018-06-21T03:34:02.225Z,20.60
2018-06-21T03:36:30.231Z,20.33
2018-06-21T03:38:58.259Z,18.33
2018-06-21T03:41:26.260Z,18.70
2018-06-21T03:43:54.273Z,18.03
2018-06-21T03:46:22.270Z,17.80
2018-06-21T03:48:50.344Z,17.50
2018-06-21T03:51:18.333Z,17.87
2018-06-21T03:53:46.347Z,17.47
2018-06-21T03:56:14.313Z,16.70
2018-06-21T03:58:42.332Z,18.00
2018-06-21T04:03:30.054Z,17.40
2018-06-21T04:05:58.029Z,16.63
2018-06-21T04:08:26.095Z,19.27
2018-06-21T04:10:54.022Z,18.60
2018-06-21T04:13:22.132Z,16.37
2018-06-21T04:15:50.127Z,17.37
2018-06-21T04:18:22.410Z,18.57
2018-06-21T04:20:50.577Z,16.57
2018-06-21T04:23:18.668Z,17.50
2018-06-21T04:25:46.726Z,17.43
2018-06-21T04:28:14.782Z,18.87
2018-06-21T04:30:42.776Z,18.43
2018-06-21T04:33:10.775Z,15.80
2018-06-21T04:35:38.773Z,17.27
2018-06-21T04:38:06.825Z,16.20
2018-06-21T04:40:34.877Z,17.50
2018-06-21T04:43:02.906Z,16.80
2018-06-21T04:45:31.001Z,16.10
2018-06-21T04:47:59.012Z,17.10
2018-06-21T04:50:27.029Z,17.00
2018-06-21T04:52:55.144Z,17.00
2018-06-21T04:55:23.197Z,17.60
2018-06-21T04:57:51.193Z,17.97
2018-06-21T05:00:19.457Z,18.40
2018-06-21T05:02:47.652Z,18.80
2018-06-21T05:05:15.673Z,18.17
2018-06-21T05:07:43.718Z,18.13
2018-06-21T05:10:11.804Z,21.10
2018-06-21T05:12:39.963Z,20.37
2018-06-21T05:15:07.955Z,19.30
2018-06-21T05:17:35.985Z,17.87
2018-06-21T05:20:04.009Z,19.40
2018-06-21T05:22:32.166Z,17.90
2018-06-21T05:25:00.177Z,16.90
2018-06-21T05:27:28.177Z,17.80
2018-06-21T05:29:56.188Z,18.47
2018-06-21T05:32:24.356Z,17.37
2018-06-21T05:34:52.368Z,20.60
2018-06-21T05:37:20.411Z,20.00
2018-06-21T05:39:48.368Z,21.77
2018-06-21T05:42:16.391Z,21.90
2018-06-21T05:44:44.420Z,22.50
2018-06-21T05:47:12.760Z,22.43
2018-06-21T05:49:40.758Z,24.03
2018-06-21T05:52:08.737Z,15.03
2018-06-21T05:54:37.851Z,8.60
2018-06-21T05:57:05.824Z,6.30
2018-06-21T05:59:33.870Z,4.13
2018-06-21T06:02:01.901Z,3.40
2018-06-21T06:04:29.856Z,2.60
2018-06-21T06:06:57.961Z,2.77
2018-06-21T06:09:25.956Z,2.90
2018-06-21T06:11:54.150Z,2.17
2018-06-21T06:14:22.168Z,2.40
2018-06-21T06:16:50.193Z,2.70
2018-06-21T06:19:18.444Z,1.93
2018-06-21T06:21:46.446Z,2.40
2018-06-21T06:24:14.490Z,1.93
2018-06-21T06:26:42.676Z,1.80
2018-06-21T06:29:10.756Z,1.73
2018-06-21T06:31:39.369Z,1.67
2018-06-21T06:34:07.442Z,1.93
2018-06-21T06:36:35.476Z,1.90
2018-06-21T06:39:21.109Z,1.60
2018-06-21T06:41:50.164Z,1.83
2018-06-21T06:44:18.761Z,1.60
2018-06-21T06:46:46.801Z,2.10
2018-06-21T06:49:14.773Z,2.20
2018-06-21T06:51:42.772Z,2.30
2018-06-21T06:54:11.660Z,2.07
2018-06-21T06:56:39.849Z,2.60
2018-06-21T06:59:07.845Z,2.93
2018-06-21T07:01:35.846Z,3.73
2018-06-21T07:04:03.929Z,3.60
2018-06-21T07:06:31.908Z,3.00
2018-06-21T07:08:59.884Z,3.33
2018-06-21T07:11:28.792Z,2.60
2018-06-21T07:13:57.757Z,2.90
2018-06-21T07:16:26.181Z,3.10
2018-06-21T07:18:54.179Z,3.03
2018-06-21T07:21:22.276Z,2.40
2018-06-21T07:23:50.441Z,2.73
2018-06-21T07:26:18.457Z,2.60
2018-06-21T07:28:46.582Z,2.93
2018-06-21T07:31:14.600Z,3.33
2018-06-21T07:33:42.584Z,3.10
2018-06-21T07:36:10.621Z,3.03
2018-06-21T07:38:38.650Z,2.80
2018-06-21T07:41:06.702Z,2.30
2018-06-21T07:43:34.698Z,3.00
2018-06-21T07:46:02.729Z,3.70
2018-06-21T07:48:30.724Z,3.43
2018-06-21T07:50:58.744Z,3.87
2018-06-21T07:53:26.833Z,3.50
2018-06-21T07:55:54.821Z,3.33
2018-06-21T07:58:22.857Z,2.50
2018-06-21T08:00:50.844Z,3.20
2018-06-21T08:03:18.845Z,3.27
2018-06-21T08:05:46.849Z,3.90
2018-06-21T08:08:14.887Z,2.90
2018-06-21T08:10:42.907Z,2.97
2018-06-21T08:13:11.048Z,2.70
2018-06-21T08:15:39.040Z,3.70
2018-06-21T08:18:07.076Z,2.40
2018-06-21T08:20:35.101Z,3.40
2018-06-21T08:23:03.572Z,3.03
2018-06-21T08:25:31.544Z,2.67
2018-06-21T08:27:59.648Z,2.77
2018-06-21T08:30:27.769Z,2.90
2018-06-21T08:32:55.789Z,2.70
2018-06-21T08:35:23.817Z,2.57
2018-06-21T08:37:51.841Z,3.13
2018-06-21T08:40:19.841Z,2.83
2018-06-21T08:42:47.857Z,2.77
2018-06-21T08:45:15.844Z,3.10
2018-06-21T08:47:43.829Z,2.60
2018-06-21T08:50:11.988Z,2.93
2018-06-21T08:52:39.997Z,2.23
2018-06-21T08:55:08.025Z,2.70
2018-06-21T08:57:36.016Z,2.27
2018-06-21T09:00:04.513Z,2.12
2018-06-21T09:02:33.803Z,2.30
2018-06-21T09:05:01.834Z,2.20
2018-06-21T09:07:29.826Z,1.97
2018-06-21T09:09:57.813Z,1.70
2018-06-21T09:12:30.022Z,2.07
2018-06-21T09:14:59.088Z,1.43
2018-06-21T09:17:27.116Z,2.67
2018-06-21T09:19:55.192Z,2.90
2018-06-21T09:22:23.213Z,2.33
2018-06-21T09:24:51.270Z,2.10
2018-06-21T09:27:19.317Z,2.90
2018-06-21T09:29:47.720Z,2.40
2018-06-21T09:32:15.973Z,2.40
2018-06-21T09:34:43.977Z,2.10
2018-06-21T09:37:11.992Z,2.40
2018-06-21T09:39:45.395Z,1.80
2018-06-21T09:42:18.857Z,2.30
2018-06-21T09:44:52.381Z,1.43
2018-06-21T09:47:25.790Z,2.17
2018-06-21T09:49:53.812Z,1.57
2018-06-21T09:52:21.823Z,2.43
2018-06-21T09:54:49.956Z,1.70
2018-06-21T09:57:18.012Z,1.43
2018-06-21T09:59:46.033Z,1.40
2018-06-21T10:02:14.033Z,1.70
2018-06-21T10:04:42.050Z,1.47
2018-06-21T10:07:10.176Z,1.57
2018-06-21T10:09:38.261Z,2.57
2018-06-21T10:12:06.677Z,1.83
2018-06-21T10:14:34.681Z,1.83
2018-06-21T10:17:02.844Z,1.70
2018-06-21T10:19:30.905Z,1.70
2018-06-21T10:21:58.916Z,2.43
2018-06-21T10:24:26.912Z,1.70
2018-06-21T10:26:54.904Z,2.33
2018-06-21T10:29:22.920Z,1.90
2018-06-21T10:31:50.906Z,2.10
2018-06-21T10:34:18.919Z,1.57
2018-06-21T10:36:46.929Z,1.60
2018-06-21T10:39:14.937Z,1.80
2018-06-21T10:41:42.948Z,1.40
2018-06-21T10:44:11.886Z,2.50
2018-06-21T10:46:39.867Z,1.30
2018-06-21T10:49:07.906Z,2.30
2018-06-21T10:51:36.016Z,1.67
2018-06-21T10:54:04.253Z,1.80
2018-06-21T10:56:32.516Z,2.20
2018-06-21T10:59:00.519Z,1.40
2018-06-21T11:01:28.822Z,1.67
2018-06-21T11:03:56.805Z,1.60
2018-06-21T11:06:25.285Z,2.23
2018-06-21T11:08:53.284Z,2.10
2018-06-21T11:11:21.272Z,1.70
2018-06-21T11:13:49.301Z,2.20
2018-06-21T11:16:17.269Z,1.83
2018-06-21T11:18:45.277Z,2.23
2018-06-21T11:21:13.269Z,1.50
2018-06-21T11:23:41.261Z,2.20
2018-06-21T11:26:09.260Z,2.17
2018-06-21T11:28:37.340Z,1.60
2018-06-21T11:31:05.307Z,2.07
2018-06-21T11:33:33.308Z,1.70
2018-06-21T11:36:01.305Z,1.80
2018-06-21T11:38:29.340Z,2.27
2018-06-21T11:40:58.347Z,1.90
2018-06-21T11:43:26.340Z,2.00
2018-06-21T11:45:54.333Z,2.70
2018-06-21T11:48:22.369Z,2.53
2018-06-21T11:50:50.365Z,3.20
2018-06-21T11:53:18.402Z,2.40
2018-06-21T11:55:46.393Z,2.40
2018-06-21T11:58:14.418Z,2.50
2018-06-21T12:00:42.436Z,2.93
2018-06-21T12:03:10.434Z,2.10
2018-06-21T12:05:38.460Z,2.00
2018-06-21T12:08:06.465Z,1.70
2018-06-21T12:10:34.464Z,2.10
2018-06-21T12:13:02.492Z,1.77
2018-06-21T12:15:30.556Z,1.50
2018-06-21T12:17:58.548Z,1.77
2018-06-21T12:20:26.550Z,1.83
2018-06-21T12:22:54.673Z,1.50
2018-06-21T12:25:22.676Z,1.30
2018-06-21T12:27:50.853Z,1.40
2018-06-21T12:30:18.893Z,1.37
2018-06-21T12:32:46.884Z,1.40
2018-06-21T12:35:14.925Z,1.93
2018-06-21T12:37:42.942Z,1.10
2018-06-21T12:40:10.948Z,1.30
2018-06-21T12:42:39.044Z,1.33
2018-06-21T12:45:07.033Z,1.10
2018-06-21T12:47:35.026Z,1.20
2018-06-21T12:50:03.061Z,1.50
2018-06-21T12:52:31.200Z,1.50
2018-06-21T12:54:59.213Z,1.63
2018-06-21T12:57:27.255Z,1.10
2018-06-21T12:59:55.309Z,1.17
2018-06-21T13:02:23.301Z,0.80
2018-06-21T13:04:51.305Z,0.80
2018-06-21T13:07:19.369Z,0.90
2018-06-21T13:09:58.953Z,0.90
2018-06-21T13:12:39.473Z,1.00
2018-06-21T13:15:07.596Z,1.00
2018-06-21T13:17:35.635Z,1.10
2018-06-21T13:20:04.825Z,1.33
2018-06-21T13:22:32.820Z,1.90
2018-06-21T13:25:00.809Z,0.80
2018-06-21T13:27:28.820Z,1.00
2018-06-21T13:29:56.995Z,0.80
2018-06-21T13:32:24.986Z,0.97
2018-06-21T13:34:53.073Z,1.03
2018-06-21T13:37:21.033Z,1.00
2018-06-21T13:39:49.032Z,1.10
2018-06-21T13:42:17.034Z,0.90
2018-06-21T13:44:45.139Z,1.03
2018-06-21T13:47:13.124Z,0.93
2018-06-21T13:49:41.252Z,0.73
2018-06-21T13:52:09.252Z,1.10
2018-06-21T13:54:37.284Z,1.00
2018-06-21T13:57:05.361Z,1.00
2018-06-21T13:59:33.384Z,1.30
2018-06-21T14:02:01.417Z,0.90
2018-06-21T14:04:29.434Z,1.20
2018-06-21T14:06:57.464Z,0.70
2018-06-21T14:09:25.496Z,1.23
2018-06-21T14:11:53.589Z,1.00
2018-06-21T14:14:21.609Z,0.87
2018-06-21T14:16:49.724Z,0.80
2018-06-21T14:19:17.725Z,0.70
2018-06-21T14:21:45.750Z,0.80
2018-06-21T14:24:15.032Z,0.70
2018-06-21T14:26:43.453Z,1.00
2018-06-21T14:29:11.465Z,1.20
2018-06-21T14:31:39.470Z,1.23
2018-06-21T14:34:07.444Z,1.10
2018-06-21T14:36:35.541Z,1.17
2018-06-21T14:39:04.762Z,0.83
2018-06-21T14:41:32.778Z,0.90
2018-06-21T14:44:01.286Z,0.80
2018-06-21T14:46:29.281Z,0.87
2018-06-21T14:48:57.350Z,0.70
2018-06-21T14:51:25.345Z,1.00
2018-06-21T14:53:53.590Z,0.70
2018-06-21T14:56:21.593Z,0.90
2018-06-21T14:58:49.569Z,0.80
2018-06-21T15:01:17.631Z,0.80
2018-06-21T15:03:45.657Z,1.10
2018-06-21T15:06:13.692Z,1.20
2018-06-21T15:08:41.760Z,1.43
2018-06-21T15:11:09.822Z,1.30
2018-06-21T15:13:37.785Z,1.60
2018-06-21T15:16:05.782Z,1.17
2018-06-21T15:18:34.936Z,1.30
2018-06-21T15:21:02.969Z,1.20
2018-06-21T15:23:30.947Z,1.17
2018-06-21T15:25:59.188Z,0.80
2018-06-21T15:28:27.173Z,1.07
2018-06-21T15:30:55.157Z,0.70
2018-06-21T15:33:23.157Z,0.70
2018-06-21T15:35:51.261Z,1.00
2018-06-21T15:38:19.993Z,0.70
2018-06-21T15:40:48.025Z,0.70
2018-06-21T15:43:16.109Z,0.77
2018-06-21T15:45:44.097Z,0.80
2018-06-21T15:48:12.100Z,0.90
2018-06-21T15:50:40.096Z,1.03
2018-06-21T15:53:08.138Z,0.90
2018-06-21T15:55:36.159Z,0.87
2018-06-21T15:58:04.301Z,0.90
2018-06-21T16:00:32.376Z,1.00
2018-06-21T16:03:00.540Z,1.10
2018-06-21T16:05:28.562Z,1.57
2018-06-21T16:07:56.568Z,1.43
2018-06-21T16:10:24.804Z,1.07
2018-06-21T16:12:52.846Z,0.93
2018-06-21T16:15:20.949Z,0.83
2018-06-21T16:17:48.900Z,1.00
2018-06-21T16:20:16.888Z,0.90
2018-06-21T16:22:44.905Z,0.70
2018-06-21T16:25:12.924Z,1.20
2018-06-21T16:27:41.104Z,0.70
2018-06-21T16:30:09.097Z,0.90
2018-06-21T16:32:37.096Z,0.70
2018-06-21T16:35:05.085Z,0.97
2018-06-21T16:37:33.099Z,0.90
2018-06-21T16:40:01.816Z,0.90
2018-06-21T16:42:29.947Z,0.93
2018-06-21T16:44:57.929Z,1.00
2018-06-21T16:47:25.937Z,0.80
2018-06-21T16:49:53.951Z,0.80
2018-06-21T16:52:21.944Z,1.07
2018-06-21T16:54:50.064Z,0.90
2018-06-21T16:57:18.037Z,1.50
2018-06-21T16:59:46.082Z,1.17
2018-06-21T17:02:14.159Z,1.07
2018-06-21T17:04:42.168Z,1.10
2018-06-21T17:07:10.177Z,1.20
2018-06-21T17:09:38.285Z,1.00
2018-06-21T17:12:06.293Z,1.17
2018-06-21T17:14:34.308Z,1.10
2018-06-21T17:17:02.367Z,1.07
2018-06-21T17:19:30.419Z,1.27
2018-06-21T17:21:58.413Z,1.00
2018-06-21T17:24:26.702Z,1.43
2018-06-21T17:26:54.712Z,1.10
2018-06-21T17:29:22.793Z,0.70
2018-06-21T17:31:50.812Z,1.00
2018-06-21T17:34:19.226Z,0.80
2018-06-21T17:36:47.307Z,0.93
2018-06-21T17:39:15.368Z,0.83
2018-06-21T17:41:43.408Z,1.00
2018-06-21T17:44:11.517Z,1.17
2018-06-21T17:46:39.546Z,0.90
2018-06-21T17:49:07.711Z,0.93
2018-06-21T17:51:35.745Z,0.80
2018-06-21T17:54:03.977Z,0.80
2018-06-21T17:56:31.995Z,1.07
2018-06-21T17:59:00.013Z,0.70
2018-06-21T18:01:28.021Z,1.17
2018-06-21T18:03:56.015Z,0.90
2018-06-21T18:06:24.115Z,1.13
2018-06-21T18:08:52.141Z,0.90
2018-06-21T18:11:20.226Z,1.50
2018-06-21T18:13:48.536Z,1.10
2018-06-21T18:16:16.524Z,0.80
2018-06-21T18:18:44.705Z,1.10
2018-06-21T18:21:12.756Z,1.60
2018-06-21T18:23:40.898Z,1.13
2018-06-21T18:26:08.928Z,2.13
2018-06-21T18:28:36.890Z,0.80
2018-06-21T18:31:04.917Z,1.23
2018-06-21T18:33:32.913Z,0.83
2018-06-21T18:36:00.896Z,1.20
2018-06-21T18:38:29.047Z,1.07
2018-06-21T18:40:57.124Z,1.43
2018-06-21T18:43:25.118Z,1.10
2018-06-21T18:45:53.084Z,1.40
2018-06-21T18:48:21.079Z,1.20
2018-06-21T18:50:49.117Z,1.20
2018-06-21T18:53:17.189Z,1.10
2018-06-21T18:55:45.445Z,1.30
2018-06-21T18:58:13.445Z,1.70
2018-06-21T19:00:41.433Z,1.20
2018-06-21T19:03:09.413Z,1.10
2018-06-21T19:05:37.420Z,1.33
2018-06-21T19:08:11.178Z,1.53
2018-06-21T19:10:44.660Z,2.40
2018-06-21T19:13:12.644Z,1.50
2018-06-21T19:15:40.713Z,1.00
2018-06-21T19:18:08.734Z,1.40
2018-06-21T19:20:36.823Z,1.70
2018-06-21T19:23:05.017Z,1.83
2018-06-21T19:25:33.078Z,1.33
2018-06-21T19:28:01.072Z,2.20
2018-06-21T19:30:29.090Z,1.97
2018-06-21T19:32:57.092Z,1.40
2018-06-21T19:35:25.089Z,1.50
2018-06-21T19:37:53.184Z,1.40
2018-06-21T19:40:21.184Z,1.33
2018-06-21T19:42:49.281Z,1.47
2018-06-21T19:45:17.301Z,2.40
2018-06-21T19:47:45.294Z,1.60
2018-06-21T19:50:13.324Z,1.23
2018-06-21T19:52:41.341Z,1.50
2018-06-21T19:55:09.314Z,1.30
2018-06-21T19:57:37.301Z,1.60
2018-06-21T20:00:05.288Z,1.97
2018-06-21T20:02:38.857Z,1.50
2018-06-21T20:05:06.879Z,1.37
2018-06-21T20:07:34.909Z,1.60
2018-06-21T20:10:02.934Z,1.70
2018-06-21T20:12:30.945Z,1.40
2018-06-21T20:14:58.936Z,2.67
2018-06-21T20:17:26.977Z,1.10
2018-06-21T20:20:00.442Z,1.10
2018-06-21T20:22:28.487Z,1.83
2018-06-21T20:24:56.743Z,1.67
2018-06-21T20:27:24.812Z,1.37
2018-06-21T20:29:53.113Z,1.20
2018-06-21T20:32:21.142Z,1.60
2018-06-21T20:34:49.213Z,2.37
2018-06-21T20:37:17.339Z,1.77
2018-06-21T20:39:46.058Z,1.50
2018-06-21T20:42:14.154Z,1.33
2018-06-21T20:44:42.147Z,1.70
2018-06-21T20:47:10.152Z,1.30
2018-06-21T20:49:38.265Z,2.07
2018-06-21T20:52:10.461Z,1.97
2018-06-21T20:54:38.478Z,1.33
2018-06-21T20:57:06.480Z,1.70
2018-06-21T20:59:34.629Z,1.43
2018-06-21T21:02:02.632Z,1.77
2018-06-21T21:04:41.172Z,1.30
2018-06-21T21:07:09.196Z,1.70
2018-06-21T21:09:37.239Z,2.00
2018-06-21T21:12:05.313Z,1.50
2018-06-21T21:14:33.356Z,1.80
2018-06-21T21:17:01.377Z,1.97
2018-06-21T21:19:29.382Z,2.30
2018-06-21T21:21:57.400Z,1.67
2018-06-21T21:24:25.395Z,1.50
2018-06-21T21:26:53.369Z,1.97
2018-06-21T21:29:21.407Z,2.63
2018-06-21T21:31:49.401Z,1.47
2018-06-21T21:34:17.489Z,2.90
2018-06-21T21:36:45.467Z,1.80
2018-06-21T21:39:13.477Z,2.70
2018-06-21T21:41:41.557Z,2.00
2018-06-21T21:44:10.174Z,1.97
2018-06-21T21:46:38.183Z,1.77
2018-06-21T21:49:06.255Z,2.57
2018-06-21T21:51:34.329Z,2.07
2018-06-21T21:54:02.374Z,1.87
2018-06-21T21:56:30.416Z,3.63
2018-06-21T21:58:58.445Z,2.30
2018-06-21T22:01:26.477Z,1.90
2018-06-21T22:03:54.850Z,2.00
2018-06-21T22:06:23.038Z,2.20
2018-06-21T22:08:51.140Z,1.77
2018-06-21T22:11:19.172Z,2.70
2018-06-21T22:13:47.213Z,2.20
2018-06-21T22:16:15.218Z,2.30
2018-06-21T22:18:43.266Z,2.23
2018-06-21T22:21:11.377Z,1.97
2018-06-21T22:23:39.416Z,2.00
2018-06-21T22:26:07.405Z,2.10
2018-06-21T22:28:35.468Z,2.80
2018-06-21T22:31:03.467Z,2.40
2018-06-21T22:33:31.448Z,2.60
2018-06-21T22:35:59.458Z,2.40
2018-06-21T22:38:27.441Z,3.00
2018-06-21T22:40:55.487Z,2.87
2018-06-21T22:43:23.549Z,2.33
2018-06-21T22:45:51.611Z,2.43
2018-06-21T22:48:19.645Z,2.00
2018-06-21T22:50:47.636Z,2.50
2018-06-21T22:53:15.633Z,1.83
2018-06-21T22:55:43.730Z,1.60
2018-06-21T22:58:11.814Z,2.60
2018-06-21T23:00:39.757Z,1.70
2018-06-21T23:03:08.184Z,1.70
2018-06-21T23:05:36.199Z,2.23
2018-06-21T23:08:04.221Z,1.53
2018-06-21T23:10:32.212Z,1.40
2018-06-21T23:13:00.276Z,1.50
2018-06-21T23:15:28.305Z,1.67
2018-06-21T23:17:56.357Z,3.13
2018-06-21T23:20:24.383Z,1.33
2018-06-21T23:22:52.392Z,2.00
2018-06-21T23:25:20.387Z,1.60
2018-06-21T23:27:48.362Z,1.90
2018-06-21T23:30:16.462Z,2.57
2018-06-21T23:32:44.489Z,1.47
2018-06-21T23:35:12.513Z,1.67
2018-06-21T23:37:40.484Z,2.20
2018-06-21T23:40:08.513Z,1.73
2018-06-21T23:42:36.742Z,1.77
2018-06-21T23:45:04.708Z,1.70
2018-06-21T23:47:32.712Z,2.50
2018-06-21T23:50:00.745Z,2.60
2018-06-21T23:52:28.752Z,2.17
2018-06-21T23:54:56.768Z,1.70
2018-06-21T23:57:25.828Z,1.70
2018-06-21T23:59:53.832Z,2.00
